Concordia, Argentina

1:39 PM ART on July 22, 2014 (GMT -0300)
CENTRO DE SALTO (IURUGUAY2) Elev 125 ft | 31.39 °S, 57.96 °W | Change Station

Current weather conditions updated 9 minutes ago

Mostly Cloudy
Mostly Cloudy
61.2 °F
Feels Like 61.2 °F
N
4.4
Wind Variable Wind from North
Gusts 6.9 mph

Today is forecast to be Cooler than yesterday. Thunderstorms.

Today
High -- | Low -- °F
--% Chance of Precip.
Yesterday
High -- | Low -- °F
Precip. -- in
7:46 AM 6:11 PM
Waning Crescent, 16% visible
Pressure 29.74 in
Visibility 3.7 miles
Clouds Scattered Clouds 700 ft
Mostly Cloudy 6000 ft
Dew Point 61 °F
Humidity 100%
Rainfall 0.87 in
Snow Depth Not available.
UV 3 out of 12
Pollen Not available.
Air Quality Not available.
Flu Activity Not available.
METAR SUSO 221600Z 04004KT 6000 SCT007 BKN060 15/15 Q1007

More Conditions Fewer Conditions

Pressure 29.74 in
Visibility 3.7 miles
Clouds Scattered Clouds 700 ft
Mostly Cloudy 6000 ft
Dew Point 61 °F
Humidity 100%
Rainfall 0.87 in
Snow Depth Not available.
UV 3 out of 12
Pollen Not available.
Air Quality Not available.
Flu Activity Not available.
METAR SUSO 221600Z 04004KT 6000 SCT007 BKN060 15/15 Q1007

More Conditions Fewer Conditions

10-Day Weather Forecast

LIGHTNING

Thunderstorms are forecast for your area. Cloud conditions might be right for producing strikes in the next few days, though lightning itself cannot be forecasted.

Lightning is a visible electrical discharge produced by a thunderstorm, based on the build up of oppositely charged particles within a cloud and from cloud to ground.

Know how to stay safe in a lightning storm.

Check out these Lightning WunderPhotos!

Almanac

Astronomy

Jul. 22, 2014 Rise Set
Actual Time 7:46 AM ART 6:11 PM ART
Civil Twilight 7:20 AM ART 6:37 PM ART
Nautical Twilight 6:50 AM ART 7:06 PM ART
Astronomical Twilight 6:21 AM ART 7:35 PM ART
Moon 4:03 AM ART 2:51 PM ART
Length of Visible Light 11h 17m
Length of Day
10h 25m
Tomorrow will be 1m 8s longer.
Waning Crescent, 16% of the Moon is Illuminated
Today
Waning Crescent
Jul 26
New
Aug 3
First Quarter
Aug 10
Full
Aug 17
Last Quarter

Today's Extremes

Country Highs Country Lows

Community

WunderPhotos

Upload Photos

1,736,283 photos uploaded!

Nearby

Snow Depth

Not available.

Earthquake Activity

City Distance Mag. Time & Date
No recent earthquake activity has been reported nearby.
Minimum magnitude displayed is 2.5.

Coastal Water Temperatures

Place Temperature
No Stations Reporting

Nearby Weather Stations

Station Location Temp. Dew Point Humidity Wind Precip. Elev Updated Type
CENTRO DE SALTO, Uruguay 61.2 °F 61 °F 100% North  at  4.4 mph 0.00 in / hr 125 ft 1:30 PM UYT Normal
ZONA ESTE DE SALTO URUGUAY, Salto 60.1 °F 59 °F 97% North  at  0.0 mph 0.00 in / hr 92 ft 1:30 PM UYT Normal

Show More Stations Show Fewer Stations